Time;durP1;ratioP1;P1;durP2;ratioP2;P2;SDS_P1;SDS_P2;PMS_P1;PMS_P2;Temp;Humidity;BMP_temperature;BMP_pressure;BME280_temperature;BME280_humidity;BME280_pressure;Samples;Min_cycle;Max_cycle;Signal;HPM_P1;HPM_P2
2022/02/12 00:03:06;;;;;;;2.83;1.17;;;-1.30;91.10;;;;;;6288362;28;20294;-72
2022/02/12 00:06:14;;;;;;;7.17;1.30;;;-1.40;91.20;;;;;;6288838;28;20567;-73
2022/02/12 00:09:20;;;;;;;2.63;1.00;;;-1.40;92.00;;;;;;6288831;28;20298;-73
2022/02/12 00:12:26;;;;;;;1.20;1.10;;;-1.40;91.80;;;;;;6263990;28;20295;-73
2022/02/12 00:15:32;;;;;;;3.27;1.30;;;-1.40;91.70;;;;;;6264620;28;20279;-72
2022/02/12 00:18:37;;;;;;;1.20;1.20;;;-1.40;92.50;;;;;;6263419;28;20449;-73
2022/02/12 00:21:43;;;;;;;1.60;1.37;;;-1.40;92.90;;;;;;6263952;28;20300;-73
2022/02/12 00:24:48;;;;;;;1.37;1.30;;;-1.40;92.90;;;;;;6263362;28;20299;-72
2022/02/12 00:27:53;;;;;;;1.70;1.07;;;-1.50;92.70;;;;;;6263749;28;20296;-73
2022/02/12 00:31:00;;;;;;;1.10;1.10;;;-1.40;92.30;;;;;;6264377;28;20275;-72
2022/02/12 00:34:05;;;;;;;0.90;0.90;;;-1.30;91.80;;;;;;6245515;28;20298;-73
2022/02/12 00:37:12;;;;;;;1.23;1.13;;;-1.40;91.90;;;;;;6263121;28;20294;-73
2022/02/12 00:40:20;;;;;;;1.00;1.00;;;-1.40;92.30;;;;;;6263622;28;20528;-73
2022/02/12 00:43:25;;;;;;;3.50;0.97;;;-1.40;92.80;;;;;;6263051;28;20301;-73
2022/02/12 00:46:31;;;;;;;3.33;1.30;;;-1.40;92.80;;;;;;6263024;28;20268;-72
2022/02/12 00:49:37;;;;;;;6.07;1.03;;;-1.40;93.10;;;;;;6262933;28;20304;-72
2022/02/12 00:52:44;;;;;;;1.00;1.00;;;-1.30;92.50;;;;;;6262388;28;20294;-72
2022/02/12 00:55:49;;;;;;;1.20;1.10;;;-1.30;93.40;;;;;;6262865;28;20271;-72
2022/02/12 00:58:54;;;;;;;1.17;1.10;;;-1.40;92.90;;;;;;6262364;28;20590;-72
2022/02/12 01:02:01;;;;;;;1.70;1.10;;;-1.30;93.00;;;;;;6261023;28;20279;-73
2022/02/12 01:05:07;;;;;;;1.00;1.00;;;-1.30;93.20;;;;;;6263581;28;20573;-73
2022/02/12 01:08:14;;;;;;;2.40;1.20;;;-1.20;93.20;;;;;;6262957;28;20307;-73
2022/02/12 01:11:19;;;;;;;3.07;1.20;;;-1.20;93.30;;;;;;6263123;28;20271;-73
2022/02/12 01:14:25;;;;;;;1.47;1.20;;;-1.10;93.10;;;;;;6262275;28;20310;-72
2022/02/12 01:17:32;;;;;;;2.67;1.07;;;-1.10;93.10;;;;;;6261741;28;20311;-73
2022/02/12 01:20:40;;;;;;;1.00;1.00;;;-1.10;93.40;;;;;;6262545;28;20299;-72
2022/02/12 01:23:46;;;;;;;1.17;1.17;;;-1.10;93.40;;;;;;6261846;28;20301;-72
2022/02/12 01:26:51;;;;;;;1.23;1.23;;;-1.10;93.70;;;;;;6263042;28;20295;-72
2022/02/12 01:29:56;;;;;;;1.10;1.10;;;-1.10;93.90;;;;;;6261620;28;20309;-72
2022/02/12 01:33:03;;;;;;;1.90;1.10;;;-1.10;94.20;;;;;;6262097;28;20302;-72
2022/02/12 01:36:09;;;;;;;1.30;1.27;;;-1.10;94.30;;;;;;6261962;28;20486;-72
2022/02/12 01:39:14;;;;;;;1.10;1.10;;;-1.10;94.50;;;;;;6262371;28;20308;-71
2022/02/12 01:42:20;;;;;;;1.10;1.10;;;-1.10;94.80;;;;;;6261938;28;20471;-71
2022/02/12 01:45:26;;;;;;;1.17;1.17;;;-1.10;94.80;;;;;;6261741;28;20268;-71
2022/02/12 01:48:33;;;;;;;1.30;1.30;;;-1.10;95.20;;;;;;6261816;28;20304;-72
2022/02/12 01:51:39;;;;;;;1.00;1.00;;;-1.10;95.40;;;;;;6262210;28;20275;-72
2022/02/12 01:54:45;;;;;;;1.00;1.00;;;-1.10;95.80;;;;;;6261585;28;20299;-72
2022/02/12 01:57:51;;;;;;;1.30;1.20;;;-1.10;95.80;;;;;;6261618;28;20302;-72
2022/02/12 02:00:56;;;;;;;3.00;1.13;;;-1.10;96.00;;;;;;6262141;28;20274;-72
2022/02/12 02:04:03;;;;;;;1.00;1.00;;;-1.10;96.10;;;;;;6261191;28;20292;-72
2022/02/12 02:07:12;;;;;;;0.80;0.80;;;-1.10;96.20;;;;;;6260922;28;20275;-72
2022/02/12 02:10:19;;;;;;;2.63;1.07;;;-1.10;96.30;;;;;;6268668;28;20264;-72
2022/02/12 02:13:26;;;;;;;4.43;1.07;;;-1.10;96.40;;;;;;6285482;28;20302;-72
2022/02/12 02:16:31;;;;;;;1.00;1.00;;;-1.10;96.50;;;;;;6286852;28;20277;-71
2022/02/12 02:19:38;;;;;;;0.93;0.93;;;-1.00;96.50;;;;;;6286170;28;20299;-72
2022/02/12 02:22:53;;;;;;;1.20;1.03;;;-1.00;96.60;;;;;;6285420;28;20241;-72
2022/02/12 02:25:59;;;;;;;1.50;1.03;;;-1.10;96.80;;;;;;6286459;28;20274;-72
2022/02/12 02:29:04;;;;;;;1.00;1.00;;;-1.20;97.30;;;;;;6285956;28;20302;-71
2022/02/12 02:32:11;;;;;;;1.20;1.10;;;-1.20;97.40;;;;;;6286074;28;20301;-72
2022/02/12 02:35:19;;;;;;;2.00;1.17;;;-1.10;97.40;;;;;;6286345;28;20430;-72
2022/02/12 02:38:27;;;;;;;0.97;0.93;;;-1.10;97.50;;;;;;6285421;28;20463;-71
2022/02/12 02:41:33;;;;;;;2.77;1.20;;;-1.10;97.50;;;;;;6285328;28;20274;-72
2022/02/12 02:44:39;;;;;;;0.93;0.93;;;-1.10;97.70;;;;;;6285138;28;20303;-72
2022/02/12 02:47:45;;;;;;;0.90;0.90;;;-1.10;97.80;;;;;;6285780;28;20307;-71
2022/02/12 02:57:38;;;;;;;1.13;1.13;;;-1.10;98.40;;;;;;6284965;28;20543;-71
2022/02/12 03:00:44;;;;;;;1.77;1.13;;;-1.10;98.50;;;;;;6268223;28;20292;-71
2022/02/12 03:03:52;;;;;;;1.20;1.20;;;-1.10;98.70;;;;;;6268137;28;20293;-71
2022/02/12 03:06:57;;;;;;;2.63;1.00;;;-1.00;98.70;;;;;;6285807;28;20271;-71
2022/02/12 03:10:05;;;;;;;1.40;1.10;;;-1.10;98.90;;;;;;6284708;28;20285;-72
2022/02/12 03:13:12;;;;;;;3.90;1.00;;;-1.10;99.20;;;;;;6285194;28;20297;-71
2022/02/12 03:16:17;;;;;;;1.70;1.10;;;-1.00;99.20;;;;;;6285054;28;20275;-71
2022/02/12 03:19:23;;;;;;;3.10;1.20;;;-1.00;99.50;;;;;;6285023;28;20302;-72
2022/02/12 03:22:29;;;;;;;1.10;1.00;;;-1.00;99.60;;;;;;6284566;28;20489;-72
2022/02/12 03:25:41;;;;;;;1.00;1.00;;;-1.10;99.70;;;;;;6289763;28;20275;-72
2022/02/12 03:28:48;;;;;;;1.13;1.10;;;-1.10;99.80;;;;;;6289952;28;20302;-72
2022/02/12 03:31:53;;;;;;;1.23;0.90;;;-1.10;99.90;;;;;;6289578;28;20275;-72
2022/02/12 03:34:58;;;;;;;2.40;1.20;;;-1.10;99.90;;;;;;6290165;28;20303;-72
2022/02/12 03:38:11;;;;;;;2.47;1.20;;;-1.00;99.90;;;;;;6289348;28;20298;-72
2022/02/12 03:41:18;;;;;;;2.60;1.27;;;-1.00;99.90;;;;;;6271841;28;20297;-72
2022/02/12 03:44:24;;;;;;;2.07;0.97;;;-0.90;99.90;;;;;;6289687;28;20599;-72
2022/02/12 03:47:29;;;;;;;1.00;1.00;;;-0.90;99.90;;;;;;6288717;28;20286;-71
2022/02/12 03:50:36;;;;;;;2.00;1.23;;;-0.90;99.90;;;;;;6289332;28;20279;-71
2022/02/12 03:53:41;;;;;;;4.10;1.00;;;-0.90;99.90;;;;;;6289496;28;20298;-72
2022/02/12 03:56:48;;;;;;;1.70;1.17;;;-0.90;99.90;;;;;;6289493;28;20373;-71
2022/02/12 03:59:55;;;;;;;1.80;1.10;;;-0.90;99.90;;;;;;6289591;28;20316;-71
2022/02/12 04:03:01;;;;;;;4.17;1.37;;;-0.90;99.90;;;;;;6285776;28;20350;-72
2022/02/12 04:06:07;;;;;;;1.30;1.10;;;-0.90;99.90;;;;;;6288578;28;20265;-73
2022/02/12 04:09:13;;;;;;;4.17;1.10;;;-0.90;99.90;;;;;;6289347;28;20299;-73
2022/02/12 04:12:20;;;;;;;1.47;1.10;;;-0.90;99.90;;;;;;6288146;28;20557;-73
2022/02/12 04:15:26;;;;;;;1.67;1.07;;;-0.80;99.90;;;;;;6289361;28;20270;-72
2022/02/12 04:18:31;;;;;;;3.97;1.20;;;-0.90;99.90;;;;;;6288571;28;20314;-73
2022/02/12 04:21:37;;;;;;;0.97;0.97;;;-0.80;99.90;;;;;;6288933;28;20314;-73
2022/02/12 04:24:43;;;;;;;2.93;1.20;;;-0.90;99.90;;;;;;6288873;28;20303;-74
2022/02/12 04:27:51;;;;;;;1.23;1.23;;;-0.90;99.90;;;;;;6288511;28;20314;-73
2022/02/12 04:30:56;;;;;;;1.40;1.03;;;-0.90;99.90;;;;;;6288419;28;20275;-73
2022/02/12 04:34:01;;;;;;;3.27;1.37;;;-0.90;99.90;;;;;;6288817;28;20466;-73
2022/02/12 04:37:07;;;;;;;1.20;1.20;;;-1.00;99.90;;;;;;6288246;28;20283;-73
2022/02/12 04:40:14;;;;;;;2.40;1.10;;;-0.90;99.90;;;;;;6288021;28;20296;-72
2022/02/12 04:43:21;;;;;;;1.80;1.27;;;-1.00;99.90;;;;;;6288003;28;20295;-72
2022/02/12 04:46:26;;;;;;;4.80;1.10;;;-1.00;99.90;;;;;;6288799;28;20271;-72
2022/02/12 04:49:32;;;;;;;8.73;1.80;;;-1.00;99.90;;;;;;6287638;28;20298;-73
2022/02/12 04:52:39;;;;;;;6.30;1.17;;;-1.00;99.90;;;;;;6287654;28;20441;-72
2022/02/12 04:55:45;;;;;;;3.13;1.33;;;-1.00;99.90;;;;;;6287800;28;20590;-72
2022/02/12 04:58:52;;;;;;;1.30;1.20;;;-1.00;99.90;;;;;;6287959;28;20295;-72
2022/02/12 05:01:57;;;;;;;2.10;1.10;;;-1.00;99.90;;;;;;6287013;28;20292;-73
2022/02/12 05:05:03;;;;;;;2.50;1.20;;;-0.90;99.90;;;;;;6288685;28;20559;-72
2022/02/12 05:08:09;;;;;;;3.60;1.20;;;-0.90;99.90;;;;;;6287639;28;20303;-72
2022/02/12 05:11:15;;;;;;;3.03;1.20;;;-0.80;99.90;;;;;;6287435;28;20271;-72
2022/02/12 05:14:21;;;;;;;1.93;1.30;;;-0.80;99.90;;;;;;6287587;28;20458;-73
2022/02/12 05:17:27;;;;;;;3.03;1.17;;;-0.80;99.90;;;;;;6287064;28;20291;-73
2022/02/12 05:20:32;;;;;;;4.53;1.37;;;-0.70;99.90;;;;;;6287760;28;20306;-73
2022/02/12 05:23:37;;;;;;;3.27;1.50;;;-0.60;99.90;;;;;;6286810;28;20296;-73
2022/02/12 05:26:43;;;;;;;2.23;1.33;;;-0.60;99.90;;;;;;6287050;28;20271;-72
2022/02/12 05:29:50;;;;;;;2.63;1.30;;;-0.60;99.90;;;;;;6287054;28;20299;-72
2022/02/12 05:32:55;;;;;;;2.23;1.30;;;-0.50;99.90;;;;;;6287234;28;20299;-72
2022/02/12 05:36:00;;;;;;;4.77;1.30;;;-0.50;99.90;;;;;;6286681;28;20276;-72
2022/02/12 05:39:06;;;;;;;5.60;1.40;;;-0.50;99.90;;;;;;6286012;28;20305;-73
2022/02/12 05:42:11;;;;;;;4.80;1.73;;;-0.50;99.90;;;;;;6286508;28;20288;-73
2022/02/12 05:45:19;;;;;;;3.13;1.37;;;-0.40;99.90;;;;;;6286534;28;20274;-73
2022/02/12 05:48:24;;;;;;;5.17;1.37;;;-0.40;99.90;;;;;;6286496;28;20571;-72
2022/02/12 05:51:31;;;;;;;3.03;1.40;;;-0.40;99.90;;;;;;6269693;28;20278;-73
2022/02/12 05:54:38;;;;;;;4.40;1.70;;;-0.40;99.90;;;;;;6286114;28;20291;-73
2022/02/12 05:57:43;;;;;;;2.83;1.50;;;-0.20;99.90;;;;;;6286330;28;20295;-72
2022/02/12 06:00:50;;;;;;;6.53;1.60;;;-0.20;99.90;;;;;;6287308;28;20274;-72
2022/02/12 06:03:55;;;;;;;3.47;1.47;;;-0.20;99.90;;;;;;6286309;28;20295;-72
2022/02/12 06:07:01;;;;;;;4.90;2.13;;;-0.20;99.90;;;;;;6285679;28;20455;-73
2022/02/12 06:10:07;;;;;;;6.40;1.83;;;-0.10;99.90;;;;;;6286496;28;20260;-72
2022/02/12 06:13:15;;;;;;;1.57;1.40;;;-0.20;99.90;;;;;;6286043;28;20614;-72
2022/02/12 06:16:23;;;;;;;6.00;1.80;;;-0.20;99.90;;;;;;6286727;28;20275;-72
2022/02/12 06:19:29;;;;;;;5.80;1.60;;;-0.20;99.90;;;;;;6286169;28;20306;-73
2022/02/12 06:22:39;;;;;;;5.13;1.80;;;-0.10;99.90;;;;;;6285403;28;20300;-73
2022/02/12 06:25:45;;;;;;;5.93;1.53;;;-0.10;99.90;;;;;;6286479;28;20271;-72
2022/02/12 06:28:52;;;;;;;3.70;1.60;;;0.00;99.90;;;;;;6285673;28;20296;-72
2022/02/12 06:32:00;;;;;;;7.87;1.90;;;0.00;99.90;;;;;;6286094;28;20274;-73
2022/02/12 06:35:06;;;;;;;2.30;1.43;;;0.00;99.90;;;;;;6286472;28;20273;-72
2022/02/12 06:38:12;;;;;;;11.50;2.27;;;0.10;99.90;;;;;;6285731;28;20300;-72
2022/02/12 06:41:18;;;;;;;5.90;1.77;;;0.10;99.90;;;;;;6285405;28;20273;-74
2022/02/12 06:44:24;;;;;;;5.57;1.90;;;0.20;99.90;;;;;;6285424;28;20305;-75
2022/02/12 06:47:30;;;;;;;5.37;1.70;;;0.20;99.90;;;;;;6285231;28;20560;-74
2022/02/12 06:50:36;;;;;;;5.50;1.90;;;0.20;99.90;;;;;;6286544;28;20271;-74
2022/02/12 06:53:41;;;;;;;4.60;1.53;;;0.20;99.90;;;;;;6285852;28;20584;-74
2022/02/12 06:56:47;;;;;;;1.40;1.30;;;0.20;99.90;;;;;;6285880;28;20272;-74
2022/02/12 06:59:52;;;;;;;9.03;2.03;;;0.20;99.90;;;;;;6290271;28;20296;-73
2022/02/12 07:02:59;;;;;;;7.40;1.70;;;0.30;99.90;;;;;;6289729;28;20295;-73
2022/02/12 07:06:04;;;;;;;6.53;1.87;;;0.40;99.90;;;;;;6273309;28;20273;-73
2022/02/12 07:09:11;;;;;;;6.73;1.90;;;0.50;99.90;;;;;;6290421;28;20332;-74
2022/02/12 07:12:16;;;;;;;10.03;2.27;;;0.60;99.90;;;;;;6289495;28;20554;-74
2022/02/12 07:15:21;;;;;;;7.57;2.27;;;0.70;99.90;;;;;;6291114;28;20280;-73
2022/02/12 07:18:28;;;;;;;11.43;1.97;;;0.70;99.90;;;;;;6289508;28;20300;-73
2022/02/12 07:21:34;;;;;;;4.97;1.90;;;0.80;99.90;;;;;;6290460;28;20306;-74
2022/02/12 07:24:39;;;;;;;10.47;2.57;;;0.70;99.90;;;;;;6289820;28;20313;-74
2022/02/12 07:27:45;;;;;;;9.30;1.90;;;0.80;99.90;;;;;;6289843;28;20305;-75
2022/02/12 07:30:50;;;;;;;6.03;1.60;;;0.90;99.90;;;;;;6290253;28;20545;-75
2022/02/12 07:33:56;;;;;;;9.60;1.90;;;1.00;99.90;;;;;;6289756;28;20301;-75
2022/02/12 07:37:02;;;;;;;10.00;2.10;;;1.00;99.90;;;;;;6289187;28;20272;-75
2022/02/12 07:40:09;;;;;;;11.10;2.30;;;1.10;99.90;;;;;;6290395;28;20274;-74
2022/02/12 07:43:15;;;;;;;4.30;2.00;;;1.20;99.90;;;;;;6289680;28;20309;-74
2022/02/12 07:46:21;;;;;;;9.83;2.73;;;1.30;99.90;;;;;;6289869;28;20292;-74
2022/02/12 07:49:27;;;;;;;12.33;2.17;;;1.30;99.90;;;;;;6290024;28;20453;-74
2022/02/12 07:52:33;;;;;;;10.43;2.23;;;1.50;99.90;;;;;;6289279;28;20577;-75
2022/02/12 07:55:40;;;;;;;7.30;2.00;;;1.40;99.90;;;;;;6288977;28;20273;-74
2022/02/12 07:58:46;;;;;;;16.30;2.40;;;1.40;99.90;;;;;;6289357;28;20415;-73
2022/02/12 08:01:51;;;;;;;4.53;2.00;;;1.50;99.90;;;;;;6289612;28;20456;-74
2022/02/12 08:04:58;;;;;;;7.77;2.20;;;1.50;99.90;;;;;;6289222;28;20313;-74
2022/02/12 08:08:04;;;;;;;10.37;3.23;;;1.70;99.90;;;;;;6289267;28;20298;-73
2022/02/12 08:11:27;;;;;;;10.10;2.13;;;1.60;99.90;;;;;;6288905;28;20284;-74
2022/02/12 08:14:32;;;;;;;5.50;2.13;;;1.70;99.90;;;;;;6289440;28;20310;-75
2022/02/12 08:17:37;;;;;;;3.93;1.77;;;1.90;99.90;;;;;;6289203;28;20295;-74
2022/02/12 08:20:44;;;;;;;4.53;2.00;;;1.90;99.90;;;;;;6280313;28;20308;-76
2022/02/12 08:23:50;;;;;;;9.37;2.40;;;2.00;99.90;;;;;;6263870;28;20310;-73
2022/02/12 08:26:55;;;;;;;8.13;2.20;;;2.10;99.90;;;;;;6264770;28;20268;-73
2022/02/12 08:30:00;;;;;;;14.23;2.13;;;2.10;99.90;;;;;;6264177;28;20278;-75
2022/02/12 08:33:05;;;;;;;10.50;2.67;;;2.20;99.90;;;;;;6246527;28;20307;-77
2022/02/12 08:36:32;;;;;;;13.30;2.87;;;2.30;99.90;;;;;;6264454;28;20303;-75
2022/02/12 08:39:37;;;;;;;10.53;1.93;;;2.30;99.90;;;;;;6264197;28;20327;-76
2022/02/12 08:42:44;;;;;;;7.03;2.07;;;2.40;99.90;;;;;;6263079;28;20483;-74
2022/02/12 08:45:50;;;;;;;11.93;2.27;;;2.40;99.90;;;;;;6263928;28;20284;-74
2022/02/12 08:48:55;;;;;;;13.27;3.30;;;2.40;99.90;;;;;;6263695;28;20303;-74
2022/02/12 08:52:02;;;;;;;9.30;2.13;;;2.50;99.90;;;;;;6263065;28;20431;-73
2022/02/12 08:55:11;;;;;;;7.83;2.20;;;2.50;99.90;;;;;;6263024;28;20561;-73
2022/02/12 08:58:16;;;;;;;13.03;2.40;;;2.60;99.90;;;;;;6263204;28;20307;-73
2022/02/12 09:01:22;;;;;;;2.90;2.00;;;2.60;99.90;;;;;;6263223;28;20272;-74
2022/02/12 09:04:27;;;;;;;9.97;2.33;;;2.70;99.90;;;;;;6262360;28;20487;-73
2022/02/12 09:07:35;;;;;;;7.57;2.10;;;2.80;99.90;;;;;;6262243;28;20300;-72
2022/02/12 09:10:41;;;;;;;7.87;2.60;;;2.80;99.90;;;;;;6262882;28;20582;-74
2022/02/12 09:13:47;;;;;;;11.03;2.83;;;2.90;99.90;;;;;;6262210;28;20304;-75
2022/02/12 09:16:52;;;;;;;5.27;2.13;;;2.90;99.90;;;;;;6263305;28;20277;-74
2022/02/12 09:19:58;;;;;;;12.03;2.70;;;2.90;99.90;;;;;;6265004;28;20297;-74
2022/02/12 09:23:05;;;;;;;15.93;1.90;;;2.90;99.90;;;;;;6286277;28;20290;-74
2022/02/12 09:26:14;;;;;;;10.40;2.37;;;3.00;99.90;;;;;;6286960;28;20291;-74
2022/02/12 09:29:19;;;;;;;8.80;2.40;;;3.10;99.90;;;;;;6286835;28;20306;-74
2022/02/12 09:32:24;;;;;;;12.03;2.73;;;3.10;99.90;;;;;;6286418;28;20585;-75
2022/02/12 09:35:30;;;;;;;11.17;2.10;;;3.10;99.90;;;;;;6287192;28;20277;-75
2022/02/12 09:38:41;;;;;;;5.97;1.90;;;3.20;99.90;;;;;;6287405;28;20317;-74
2022/02/12 09:41:46;;;;;;;6.33;2.00;;;3.30;99.90;;;;;;6286803;28;20271;-75
2022/02/12 09:44:52;;;;;;;10.60;2.73;;;3.40;99.90;;;;;;6286577;28;20429;-73
2022/02/12 09:47:58;;;;;;;16.10;2.50;;;3.40;99.90;;;;;;6286479;28;20476;-76
2022/02/12 09:51:04;;;;;;;14.17;2.13;;;3.40;99.90;;;;;;6286815;28;20269;-76
2022/02/12 09:54:11;;;;;;;11.17;2.50;;;3.40;99.90;;;;;;6286552;28;20296;-76
2022/02/12 09:57:17;;;;;;;13.00;2.40;;;3.40;99.90;;;;;;6286984;28;20271;-73
2022/02/12 10:00:22;;;;;;;10.80;2.10;;;3.40;99.90;;;;;;6286374;28;20271;-74
2022/02/12 10:03:28;;;;;;;9.57;2.30;;;3.50;99.90;;;;;;6286458;28;20319;-75
2022/02/12 10:06:41;;;;;;;9.73;2.07;;;3.40;99.90;;;;;;6286109;28;20293;-73
2022/02/12 10:09:48;;;;;;;10.20;2.17;;;3.50;99.90;;;;;;6268942;28;20477;-74
2022/02/12 10:12:53;;;;;;;9.53;2.10;;;3.50;99.90;;;;;;6286046;28;20572;-75
2022/02/12 10:16:00;;;;;;;13.57;2.20;;;3.60;99.90;;;;;;6286819;28;20274;-75
2022/02/12 10:19:08;;;;;;;14.40;2.50;;;3.70;99.90;;;;;;6285964;28;20578;-74
2022/02/12 10:22:15;;;;;;;10.50;2.17;;;3.80;99.90;;;;;;6285502;28;20568;-75
2022/02/12 10:25:23;;;;;;;7.60;2.60;;;3.90;99.90;;;;;;6286503;28;20297;-75
2022/02/12 10:28:30;;;;;;;11.10;2.47;;;4.00;99.60;;;;;;6286512;28;20331;-75
2022/02/12 10:31:45;;;;;;;11.17;2.40;;;4.10;99.20;;;;;;6286383;28;20282;-76
2022/02/12 10:34:51;;;;;;;8.33;2.37;;;4.10;99.10;;;;;;6286043;28;20473;-73
2022/02/12 10:38:02;;;;;;;8.80;2.40;;;4.20;98.90;;;;;;6285582;28;20297;-73
2022/02/12 10:41:11;;;;;;;12.40;2.40;;;4.20;98.60;;;;;;6286304;28;20270;-73
2022/02/12 10:44:17;;;;;;;15.70;2.43;;;4.20;98.50;;;;;;6286010;28;20294;-73
2022/02/12 10:47:24;;;;;;;10.20;2.27;;;4.30;98.50;;;;;;6285747;28;20317;-74
2022/02/12 10:50:31;;;;;;;8.07;2.50;;;4.30;98.20;;;;;;6285851;28;20269;-72
2022/02/12 10:53:38;;;;;;;4.50;1.60;;;4.40;97.80;;;;;;6285811;28;20301;-71
2022/02/12 10:56:48;;;;;;;11.70;2.30;;;4.50;97.60;;;;;;6285759;28;20271;-72
2022/02/12 10:59:54;;;;;;;8.07;2.10;;;4.50;97.40;;;;;;6285690;28;20299;-73
2022/02/12 11:03:04;;;;;;;13.63;2.20;;;4.60;97.10;;;;;;6285203;28;20294;-73
2022/02/12 11:06:13;;;;;;;8.90;2.27;;;4.60;97.10;;;;;;6284969;28;20292;-73
2022/02/12 11:09:19;;;;;;;11.93;2.67;;;4.70;97.10;;;;;;6285160;28;20540;-73
2022/02/12 11:12:29;;;;;;;7.03;1.70;;;4.70;96.90;;;;;;6260883;28;20292;-73
2022/02/12 11:15:37;;;;;;;5.00;2.10;;;4.80;96.60;;;;;;6261167;28;20442;-73
2022/02/12 11:18:47;;;;;;;9.27;2.30;;;4.80;96.50;;;;;;6260505;28;20482;-73
2022/02/12 11:21:52;;;;;;;8.20;2.30;;;4.90;96.10;;;;;;6261342;28;20297;-72
2022/02/12 11:24:58;;;;;;;10.93;2.27;;;4.90;96.00;;;;;;6260783;28;20307;-73
2022/02/12 11:28:12;;;;;;;8.17;1.87;;;4.90;95.90;;;;;;6260574;28;20299;-73
2022/02/12 11:31:21;;;;;;;6.97;2.30;;;5.00;95.80;;;;;;6260136;28;20275;-73
2022/02/12 11:34:27;;;;;;;7.00;1.77;;;5.00;96.00;;;;;;6260197;28;20300;-73
2022/02/12 11:37:37;;;;;;;14.10;1.97;;;5.00;95.80;;;;;;6259804;28;20484;-73
2022/02/12 11:40:44;;;;;;;7.80;2.23;;;5.10;95.90;;;;;;6260119;28;20273;-73
2022/02/12 11:43:52;;;;;;;15.87;2.10;;;5.00;95.90;;;;;;6259840;28;20299;-73
2022/02/12 11:47:06;;;;;;;4.70;1.60;;;5.10;96.00;;;;;;6263640;28;20293;-74
2022/02/12 11:50:18;;;;;;;7.77;1.90;;;5.00;95.90;;;;;;6264779;28;20275;-73
2022/02/12 11:53:38;;;;;;;11.83;2.60;;;5.10;96.10;;;;;;6265231;28;20300;-73
2022/02/12 11:56:53;;;;;;;12.10;2.03;;;5.00;96.40;;;;;;6265473;28;20278;-73
2022/02/12 12:00:40;;;;;;;8.57;2.10;;;5.00;96.60;;;;;;6263678;28;20267;-72
2022/02/12 12:04:04;;;;;;;9.97;2.03;;;5.00;96.60;;;;;;6246909;28;20297;-72
2022/02/12 12:07:14;;;;;;;9.93;1.80;;;5.00;96.60;;;;;;6264595;28;20295;-74
2022/02/12 12:10:20;;;;;;;9.97;2.03;;;5.00;96.80;;;;;;6271707;28;20265;-74
2022/02/12 12:13:42;;;;;;;10.93;2.40;;;5.00;96.70;;;;;;6270765;28;20297;-74
2022/02/12 12:16:58;;;;;;;10.57;2.10;;;5.00;96.80;;;;;;6288672;28;20275;-73
2022/02/12 12:20:05;;;;;;;7.10;2.33;;;5.00;96.90;;;;;;6288626;28;20298;-72
2022/02/12 12:23:16;;;;;;;17.63;2.50;;;5.00;97.10;;;;;;6288438;28;20298;-74
2022/02/12 12:26:23;;;;;;;7.17;2.20;;;4.90;97.10;;;;;;6288581;28;20287;-73
2022/02/12 12:32:57;;;;;;;12.33;2.20;;;5.00;97.10;;;;;;6288288;28;20616;-74
2022/02/12 12:36:07;;;;;;;11.43;2.73;;;5.00;97.10;;;;;;6288278;28;20272;-74
2022/02/12 12:39:13;;;;;;;8.13;1.97;;;5.00;97.00;;;;;;6288234;28;20301;-74
2022/02/12 12:42:20;;;;;;;10.53;2.10;;;5.00;97.10;;;;;;6288058;28;20316;-77
2022/02/12 12:45:26;;;;;;;13.20;2.23;;;5.00;97.00;;;;;;6288647;28;20274;-77
2022/02/12 12:48:35;;;;;;;8.40;1.80;;;5.00;97.20;;;;;;6288053;28;20306;-76
2022/02/12 12:51:50;;;;;;;10.93;2.03;;;5.00;97.30;;;;;;6287967;28;20292;-76
2022/02/12 12:55:07;;;;;;;6.83;1.90;;;5.00;97.20;;;;;;6288327;28;20288;-76
2022/02/12 12:58:17;;;;;;;5.57;2.00;;;5.00;97.20;;;;;;6287683;28;20300;-75
2022/02/12 13:01:23;;;;;;;10.77;2.27;;;5.00;97.20;;;;;;6287423;28;20274;-75
2022/02/12 13:04:31;;;;;;;6.90;2.17;;;5.00;97.30;;;;;;6287687;28;20325;-75
2022/02/12 13:07:37;;;;;;;5.37;1.80;;;4.90;97.30;;;;;;6287221;28;20502;-73
2022/02/12 13:10:42;;;;;;;7.27;2.07;;;4.90;97.20;;;;;;6287606;28;20267;-74
2022/02/12 13:14:06;;;;;;;8.23;2.33;;;4.90;97.30;;;;;;6287663;28;20297;-74
2022/02/12 13:17:14;;;;;;;7.70;1.70;;;4.90;97.40;;;;;;6287131;28;20289;-75
2022/02/12 13:20:25;;;;;;;5.20;1.57;;;4.90;97.40;;;;;;6287452;28;20298;-73
2022/02/12 13:23:31;;;;;;;8.20;1.90;;;4.90;97.40;;;;;;6286986;28;20297;-73
2022/02/12 13:26:37;;;;;;;8.90;2.03;;;4.80;97.40;;;;;;6287464;28;20272;-73
2022/02/12 13:29:42;;;;;;;5.83;2.00;;;4.80;97.40;;;;;;6286755;28;20597;-73
2022/02/12 13:32:50;;;;;;;10.40;2.30;;;4.80;97.50;;;;;;6286445;28;20311;-73
2022/02/12 13:36:00;;;;;;;7.60;2.03;;;4.80;97.40;;;;;;6287867;28;20573;-74
2022/02/12 13:39:05;;;;;;;8.10;1.77;;;4.80;97.60;;;;;;6287175;28;20299;-74
2022/02/12 13:42:12;;;;;;;6.73;2.23;;;4.80;97.60;;;;;;6286333;28;20375;-75
2022/02/12 13:45:18;;;;;;;5.00;1.87;;;4.70;98.00;;;;;;6287259;28;20275;-74
2022/02/12 13:48:25;;;;;;;11.10;2.00;;;4.70;97.80;;;;;;6286192;28;20466;-73
2022/02/12 13:51:33;;;;;;;4.33;2.00;;;4.70;97.70;;;;;;6287077;28;20279;-73
2022/02/12 13:54:38;;;;;;;7.73;2.00;;;4.70;97.70;;;;;;6286325;28;20472;-73
2022/02/12 13:57:44;;;;;;;4.70;2.00;;;4.70;97.90;;;;;;6285713;28;20306;-73
2022/02/12 14:00:52;;;;;;;11.73;2.43;;;4.60;97.80;;;;;;6286227;28;20272;-72
2022/02/12 14:03:57;;;;;;;7.13;2.37;;;4.50;98.00;;;;;;6268465;28;20597;-72
2022/02/12 14:07:04;;;;;;;8.77;2.00;;;4.50;98.00;;;;;;6285050;28;20274;-72
2022/02/12 14:10:11;;;;;;;8.57;1.77;;;4.50;98.00;;;;;;6285978;28;20267;-73
2022/02/12 14:13:19;;;;;;;5.07;1.70;;;4.50;98.10;;;;;;6286026;28;20457;-72
2022/02/12 14:16:24;;;;;;;10.07;2.00;;;4.40;98.00;;;;;;6286533;28;20274;-72
2022/02/12 14:19:29;;;;;;;11.17;1.70;;;4.40;98.20;;;;;;6286268;28;20301;-73
2022/02/12 14:22:36;;;;;;;10.07;2.43;;;4.40;98.20;;;;;;6286017;28;20572;-73
2022/02/12 14:25:42;;;;;;;10.97;2.20;;;4.50;98.10;;;;;;6285642;28;20279;-74
2022/02/12 14:28:48;;;;;;;7.37;2.07;;;4.50;97.90;;;;;;6285601;28;20479;-74
2022/02/12 14:31:54;;;;;;;6.50;1.80;;;4.60;97.90;;;;;;6286204;28;20274;-74
2022/02/12 14:34:59;;;;;;;7.47;2.13;;;4.60;97.80;;;;;;6284680;28;20279;-74
2022/02/12 14:38:06;;;;;;;7.13;1.70;;;4.60;97.70;;;;;;6285278;28;20589;-73
2022/02/12 14:41:14;;;;;;;9.23;2.03;;;4.60;97.60;;;;;;6285623;28;20279;-74
2022/02/12 14:44:19;;;;;;;4.53;2.20;;;4.60;97.60;;;;;;6286307;28;20298;-76
2022/02/12 14:47:25;;;;;;;4.73;1.77;;;4.60;97.60;;;;;;6285627;28;20309;-76
2022/02/12 14:50:31;;;;;;;8.13;1.90;;;4.50;97.60;;;;;;6286013;28;20344;-74
2022/02/12 14:53:58;;;;;;;6.50;1.83;;;4.50;97.70;;;;;;6285712;28;20300;-74
2022/02/12 14:57:04;;;;;;;10.47;1.90;;;4.50;97.80;;;;;;6285449;28;20276;-75
2022/02/12 15:00:12;;;;;;;8.60;1.60;;;4.40;97.70;;;;;;6268090;28;20585;-74
2022/02/12 15:03:17;;;;;;;3.97;1.83;;;4.40;97.70;;;;;;6285737;28;20292;-74
2022/02/12 15:06:23;;;;;;;8.33;1.87;;;4.40;97.90;;;;;;6286239;28;20272;-73
2022/02/12 15:09:29;;;;;;;10.90;1.63;;;4.40;98.00;;;;;;6285138;28;20593;-74
2022/02/12 15:12:35;;;;;;;6.87;1.90;;;4.40;98.30;;;;;;6284851;28;20563;-74
2022/02/12 15:15:41;;;;;;;6.50;1.60;;;4.40;98.00;;;;;;6285796;28;20275;-74
2022/02/12 15:18:46;;;;;;;2.63;1.70;;;4.30;97.80;;;;;;6284833;28;20483;-73
2022/02/12 15:21:52;;;;;;;4.43;1.63;;;4.30;97.90;;;;;;6289752;28;20302;-73
2022/02/12 15:24:58;;;;;;;6.57;1.90;;;4.30;98.00;;;;;;6290218;28;20298;-73
2022/02/12 15:28:04;;;;;;;7.43;1.73;;;4.30;98.10;;;;;;6289759;28;20299;-73
2022/02/12 15:31:10;;;;;;;6.07;2.10;;;4.30;98.20;;;;;;6290737;28;20278;-74
2022/02/12 15:34:15;;;;;;;3.43;1.83;;;4.20;98.40;;;;;;6289674;28;20297;-73
2022/02/12 15:37:20;;;;;;;5.90;1.70;;;4.20;98.50;;;;;;6289839;28;20305;-73
2022/02/12 15:40:30;;;;;;;3.53;1.63;;;4.10;98.50;;;;;;6289710;28;20458;-73
2022/02/12 15:43:38;;;;;;;3.47;1.50;;;4.00;98.80;;;;;;6289672;28;20299;-73
2022/02/12 15:46:44;;;;;;;3.70;1.67;;;4.00;99.00;;;;;;6290524;28;20285;-73
2022/02/12 15:49:50;;;;;;;4.80;1.70;;;4.00;99.20;;;;;;6289599;28;20306;-73
2022/02/12 15:52:56;;;;;;;4.33;2.40;;;3.90;99.20;;;;;;6288510;28;20295;-73
2022/02/12 15:56:02;;;;;;;2.47;1.57;;;3.80;99.60;;;;;;6289093;28;20277;-74
2022/02/12 15:59:08;;;;;;;5.77;1.80;;;3.80;99.60;;;;;;6289151;28;20301;-73
2022/02/12 16:02:14;;;;;;;4.57;1.60;;;3.80;99.70;;;;;;6288984;28;20297;-74
2022/02/12 16:05:20;;;;;;;3.87;1.43;;;3.80;99.60;;;;;;6289767;28;20273;-74
2022/02/12 16:08:25;;;;;;;3.73;1.73;;;3.80;99.60;;;;;;6288547;28;20482;-73
2022/02/12 16:11:35;;;;;;;5.10;1.43;;;3.80;99.60;;;;;;6289063;28;20286;-73
2022/02/12 16:14:41;;;;;;;6.63;2.00;;;3.80;99.60;;;;;;6288575;28;20620;-73
2022/02/12 16:17:46;;;;;;;3.53;1.60;;;3.80;99.70;;;;;;6288160;28;20301;-73
2022/02/12 16:20:51;;;;;;;3.43;1.57;;;3.80;99.80;;;;;;6288381;28;20298;-73
2022/02/12 16:23:57;;;;;;;6.53;1.80;;;3.70;99.80;;;;;;6288355;28;20303;-73
2022/02/12 16:27:04;;;;;;;2.40;1.53;;;3.70;99.90;;;;;;6287891;28;20278;-73
2022/02/12 16:30:13;;;;;;;6.60;1.53;;;3.70;99.90;;;;;;6288020;28;20350;-74